Time;durP1;ratioP1;P1;durP2;ratioP2;P2;SDS_P1;SDS_P2;PMS_P1;PMS_P2;Temp;Humidity;BMP_temperature;BMP_pressure;BME280_temperature;BME280_humidity;BME280_pressure;Samples;Min_cycle;Max_cycle;Signal;HPM_P1;HPM_P2
2022/08/29 00:01:00;;;;;;;0.95;0.57;;;;;;;24.51;34.88;101876.66;4992550;28;20034;-60
2022/08/29 00:03:27;;;;;;;2.30;0.82;;;;;;;24.42;34.51;101873.19;4993534;28;20037;-60
2022/08/29 00:05:52;;;;;;;3.00;0.60;;;;;;;24.36;34.18;101873.09;4993198;28;20105;-60
2022/08/29 00:08:17;;;;;;;1.40;0.77;;;;;;;24.23;35.27;101857.38;4995871;28;20039;-59
2022/08/29 00:10:43;;;;;;;1.88;0.60;;;;;;;24.20;34.41;101869.53;4997050;28;20096;-60
2022/08/29 00:13:09;;;;;;;2.70;0.88;;;;;;;24.11;35.15;101864.38;4996986;28;20476;-60
2022/08/29 00:15:35;;;;;;;1.60;0.70;;;;;;;24.06;35.39;101872.31;4996921;28;20038;-60
2022/08/29 00:18:01;;;;;;;2.20;0.82;;;;;;;24.01;35.13;101874.78;4995745;28;20125;-60
2022/08/29 00:20:29;;;;;;;4.28;1.00;;;;;;;23.96;35.56;101871.72;4996898;28;20083;-60
2022/08/29 00:22:55;;;;;;;1.27;0.65;;;;;;;23.89;34.85;101870.81;4996801;28;20033;-59
2022/08/29 00:25:20;;;;;;;2.78;0.60;;;;;;;23.78;35.31;101864.78;4996752;28;20022;-60
2022/08/29 00:27:46;;;;;;;1.25;0.63;;;;;;;23.69;35.31;101865.94;4995497;28;20034;-60
2022/08/29 00:30:12;;;;;;;2.95;1.05;;;;;;;23.63;35.18;101874.88;4995557;28;20498;-60
2022/08/29 00:32:38;;;;;;;2.90;0.75;;;;;;;23.54;35.30;101876.00;4996617;28;20026;-60
2022/08/29 00:35:16;;;;;;;1.00;0.57;;;;;;;23.48;35.19;101873.19;4995305;28;20037;-60
2022/08/29 00:37:42;;;;;;;1.98;0.88;;;;;;;23.42;36.37;101873.94;4996609;28;20037;-60
2022/08/29 00:40:12;;;;;;;2.45;0.90;;;;;;;23.35;35.89;101872.94;4995341;28;20026;-60
2022/08/29 00:42:38;;;;;;;2.10;1.00;;;;;;;23.30;35.40;101878.13;4996469;28;20026;-60
2022/08/29 00:45:06;;;;;;;1.75;1.00;;;;;;;23.25;36.46;101877.84;4995156;28;20037;-59
2022/08/29 00:47:35;;;;;;;3.60;0.70;;;;;;;23.22;35.97;101886.41;4996425;28;20037;-60
2022/08/29 00:50:02;;;;;;;5.57;1.42;;;;;;;23.16;36.01;101882.53;4996546;28;20491;-60
2022/08/29 00:52:40;;;;;;;2.58;0.80;;;;;;;23.12;36.13;101883.94;4995205;28;20483;-60
2022/08/29 00:55:11;;;;;;;1.73;1.10;;;;;;;23.05;36.76;101883.00;4996409;28;20447;-60
2022/08/29 00:57:39;;;;;;;3.65;1.58;;;;;;;22.99;36.82;101883.72;4995341;28;20027;-60
2022/08/29 01:00:06;;;;;;;3.08;0.68;;;;;;;22.89;36.09;101885.88;4995038;28;20051;-60
2022/08/29 01:02:31;;;;;;;1.75;0.38;;;;;;;22.88;36.88;101886.91;4979107;28;20030;-60
2022/08/29 01:04:58;;;;;;;1.55;0.82;;;;;;;22.84;37.01;101891.00;4996005;28;20022;-60
2022/08/29 01:07:24;;;;;;;1.52;0.50;;;;;;;22.75;36.68;101883.94;4996195;28;20085;-59
2022/08/29 01:09:49;;;;;;;3.53;0.80;;;;;;;22.70;37.32;101879.00;4978658;28;20038;-60
2022/08/29 01:12:15;;;;;;;1.52;1.02;;;;;;;22.70;36.42;101889.09;4994758;28;20039;-60
2022/08/29 01:14:53;;;;;;;3.05;0.77;;;;;;;22.65;37.10;101896.97;4994701;28;20034;-59
2022/08/29 01:17:29;;;;;;;1.73;0.73;;;;;;;22.58;37.31;101894.94;4994628;28;20033;-59
2022/08/29 01:19:59;;;;;;;7.50;0.98;;;;;;;22.52;37.06;101892.94;4995815;28;20084;-59
2022/08/29 01:23:02;;;;;;;4.78;0.60;;;;;;;22.52;36.97;101898.41;4994583;28;20038;-60
2022/08/29 01:25:34;;;;;;;4.47;0.80;;;;;;;22.48;37.09;101897.06;4995659;28;20029;-60
2022/08/29 01:28:07;;;;;;;2.17;1.05;;;;;;;22.46;36.95;101903.72;4994528;28;20430;-60
2022/08/29 01:30:32;;;;;;;3.13;0.60;;;;;;;22.43;37.58;101891.28;4994416;28;20391;-60
2022/08/29 01:32:59;;;;;;;1.80;0.80;;;;;;;22.38;37.43;101891.00;4995588;28;20027;-60
2022/08/29 01:35:26;;;;;;;2.25;0.70;;;;;;;22.33;37.88;101895.28;4995565;28;20428;-60
2022/08/29 01:37:51;;;;;;;2.47;0.60;;;;;;;22.28;37.01;101901.28;4995754;28;20485;-60
2022/08/29 01:40:16;;;;;;;1.95;0.85;;;;;;;22.10;37.65;101873.41;4994375;28;20026;-60
2022/08/29 01:42:42;;;;;;;3.10;1.00;;;;;;;22.19;37.69;101896.91;4995390;28;20026;-60
2022/08/29 01:45:08;;;;;;;1.55;0.93;;;;;;;22.17;37.85;101893.47;4993957;28;20026;-60
2022/08/29 01:47:34;;;;;;;5.63;0.90;;;;;;;22.15;37.75;101898.28;4994002;28;20093;-60
2022/08/29 01:50:05;;;;;;;2.42;0.95;;;;;;;22.15;37.69;101900.16;4995308;28;20023;-59
2022/08/29 01:52:31;;;;;;;3.72;0.80;;;;;;;22.14;37.55;101893.00;4994133;28;20101;-60
2022/08/29 01:54:56;;;;;;;1.58;0.60;;;;;;;22.12;38.45;101901.38;4995224;28;20066;-59
2022/08/29 01:57:21;;;;;;;1.08;0.63;;;;;;;22.08;38.11;101900.03;4995135;28;20105;-60
2022/08/29 01:59:47;;;;;;;3.00;0.80;;;;;;;22.05;38.22;101894.94;4993835;28;20030;-60
2022/08/29 02:02:19;;;;;;;1.23;1.00;;;;;;;22.03;38.52;101899.69;4994959;28;20030;-60
2022/08/29 02:04:46;;;;;;;1.58;0.77;;;;;;;22.03;38.38;101896.97;4993748;28;20089;-59
2022/08/29 02:07:12;;;;;;;2.33;0.82;;;;;;;22.03;38.29;101903.28;4993733;28;20034;-60
2022/08/29 02:09:38;;;;;;;1.40;0.60;;;;;;;22.05;38.37;101897.66;4994909;28;20056;-60
2022/08/29 02:12:06;;;;;;;2.65;0.90;;;;;;;22.06;38.13;101885.69;4994788;28;20022;-59
2022/08/29 02:14:33;;;;;;;1.35;0.88;;;;;;;22.07;38.25;101887.41;4993873;28;20081;-59
2022/08/29 02:17:01;;;;;;;2.75;0.88;;;;;;;22.11;38.09;101888.72;4977251;28;20373;-59
2022/08/29 02:19:26;;;;;;;1.40;1.05;;;;;;;22.14;38.67;101890.28;4993441;28;20092;-59
2022/08/29 02:21:52;;;;;;;1.17;0.73;;;;;;;22.14;38.43;101888.38;4994961;28;20030;-59
2022/08/29 02:24:17;;;;;;;0.80;0.55;;;;;;;22.15;38.62;101887.34;4993620;28;20026;-59
2022/08/29 02:26:43;;;;;;;0.60;0.50;;;;;;;22.13;38.92;101886.69;4994634;28;20030;-59
2022/08/29 02:29:11;;;;;;;1.40;0.73;;;;;;;22.18;38.51;101888.88;4994429;28;20045;-59
2022/08/29 02:31:37;;;;;;;0.98;0.73;;;;;;;22.21;38.79;101892.09;4994829;28;20042;-60
2022/08/29 02:34:03;;;;;;;2.92;0.98;;;;;;;22.25;38.72;101896.16;4994984;28;20034;-59
2022/08/29 02:36:28;;;;;;;5.45;0.90;;;;;;;22.28;38.46;101893.09;4994549;28;20030;-59
2022/08/29 02:38:54;;;;;;;1.70;0.60;;;;;;;22.31;38.61;101889.13;4994476;28;20067;-59
2022/08/29 02:41:19;;;;;;;4.15;0.77;;;;;;;22.34;38.88;101886.91;4993225;28;20101;-59
2022/08/29 02:43:45;;;;;;;1.10;0.70;;;;;;;22.36;38.82;101887.56;4994207;28;20038;-60
2022/08/29 02:46:15;;;;;;;1.63;1.02;;;;;;;22.38;39.00;101891.00;4994299;28;20070;-60
2022/08/29 02:48:42;;;;;;;0.90;0.68;;;;;;;22.40;38.77;101888.91;4994260;28;20029;-60
2022/08/29 02:51:08;;;;;;;2.08;0.73;;;;;;;22.39;38.79;101881.75;4994290;28;20030;-59
2022/08/29 02:53:33;;;;;;;2.85;0.65;;;;;;;22.44;39.85;101884.81;4994041;28;20526;-60
2022/08/29 02:55:58;;;;;;;1.80;0.90;;;;;;;22.45;39.48;101881.03;4994050;28;20042;-60
2022/08/29 02:58:24;;;;;;;2.67;0.95;;;;;;;22.43;39.64;101883.09;4994126;28;20128;-60
2022/08/29 03:00:49;;;;;;;2.78;1.15;;;;;;;22.47;39.62;101884.41;4976870;28;20034;-60
2022/08/29 03:03:15;;;;;;;4.80;1.00;;;;;;;22.45;38.99;101881.03;4976601;28;20030;-60
2022/08/29 03:05:40;;;;;;;2.15;0.60;;;;;;;22.47;39.51;101884.41;4994039;28;20511;-60
2022/08/29 03:08:09;;;;;;;1.45;0.57;;;;;;;22.48;39.76;101882.53;4993987;28;20391;-60
2022/08/29 03:10:35;;;;;;;3.72;1.00;;;;;;;22.47;39.02;101870.75;4992717;28;20030;-59
2022/08/29 03:13:00;;;;;;;1.48;1.05;;;;;;;22.47;39.78;101873.50;4992668;28;20394;-59
2022/08/29 03:15:26;;;;;;;0.95;0.50;;;;;;;22.49;39.86;101870.59;4992737;28;20026;-60
2022/08/29 03:17:51;;;;;;;2.30;0.73;;;;;;;22.48;39.58;101874.34;4993925;28;20065;-60
2022/08/29 03:20:18;;;;;;;2.92;0.77;;;;;;;22.46;39.29;101863.63;4993803;28;20033;-60
2022/08/29 03:22:45;;;;;;;1.52;0.75;;;;;;;22.51;39.80;101874.00;4992716;28;20069;-59
2022/08/29 03:25:11;;;;;;;2.60;0.93;;;;;;;22.49;39.22;101870.59;4992536;28;20026;-60
2022/08/29 03:27:37;;;;;;;1.40;0.95;;;;;;;22.45;39.70;101859.19;4992628;28;20121;-60
2022/08/29 03:30:05;;;;;;;6.22;0.77;;;;;;;22.44;39.56;101862.97;4992555;28;20130;-60
2022/08/29 03:32:30;;;;;;;1.80;0.80;;;;;;;22.44;39.29;101860.25;4993752;28;20030;-60
2022/08/29 03:34:55;;;;;;;2.47;0.68;;;;;;;22.46;39.54;101868.22;4976512;28;20038;-59
2022/08/29 03:37:21;;;;;;;3.97;0.95;;;;;;;22.41;39.69;101859.75;4992725;28;20076;-60
2022/08/29 03:39:46;;;;;;;2.33;1.13;;;;;;;22.43;39.92;101864.00;4993693;28;20024;-60
2022/08/29 03:42:12;;;;;;;2.50;0.95;;;;;;;22.39;39.39;101865.38;4995586;28;20041;-60
2022/08/29 03:44:39;;;;;;;3.47;0.95;;;;;;;22.38;39.96;101865.56;4997480;28;20040;-60
2022/08/29 03:47:04;;;;;;;2.83;0.98;;;;;;;22.37;40.37;101867.44;4997584;28;20030;-59
2022/08/29 03:49:30;;;;;;;5.10;1.10;;;;;;;22.35;39.85;101874.97;4997526;28;20026;-59
2022/08/29 03:51:55;;;;;;;3.10;0.70;;;;;;;22.33;39.81;101871.56;4997503;28;20096;-59
2022/08/29 03:54:21;;;;;;;1.55;0.95;;;;;;;22.30;39.92;101874.66;4997406;28;20109;-59
2022/08/29 03:56:47;;;;;;;2.83;0.80;;;;;;;22.25;40.43;101868.88;4997214;28;20567;-59
2022/08/29 03:59:13;;;;;;;1.65;0.88;;;;;;;22.24;39.79;101872.66;4996121;28;20022;-59
2022/08/29 04:01:38;;;;;;;2.80;0.95;;;;;;;22.14;40.25;101858.34;4997248;28;20030;-60
2022/08/29 04:04:04;;;;;;;1.10;1.00;;;;;;;22.17;40.73;101868.91;4995928;28;20030;-60
2022/08/29 04:06:30;;;;;;;6.78;1.17;;;;;;;22.13;39.77;101864.88;4997125;28;20018;-60
2022/08/29 04:08:56;;;;;;;1.60;0.85;;;;;;;22.13;40.24;101867.59;4997155;28;20041;-59
2022/08/29 04:11:23;;;;;;;1.15;1.05;;;;;;;22.11;39.78;101866.91;4996170;28;20502;-59
2022/08/29 04:13:49;;;;;;;2.65;1.40;;;;;;;22.11;40.36;101869.63;4996116;28;20038;-59
2022/08/29 04:16:19;;;;;;;2.88;1.08;;;;;;;22.08;40.53;101856.38;4995965;28;20042;-59
2022/08/29 04:18:44;;;;;;;5.10;1.27;;;;;;;22.10;40.40;101865.22;4996995;28;20022;-59
2022/08/29 04:21:10;;;;;;;1.88;0.88;;;;;;;22.09;40.64;101879.03;4995760;28;20022;-59
2022/08/29 04:23:37;;;;;;;3.00;0.90;;;;;;;22.06;40.89;101877.50;4996918;28;20453;-60
2022/08/29 04:26:03;;;;;;;6.30;0.73;;;;;;;22.04;40.47;101876.84;4979233;28;20113;-59
2022/08/29 04:28:29;;;;;;;4.78;1.08;;;;;;;22.02;41.00;101870.72;4995576;28;20098;-60
2022/08/29 04:30:54;;;;;;;6.72;1.20;;;;;;;21.99;40.80;101871.06;4996930;28;20031;-59
2022/08/29 04:33:23;;;;;;;2.28;1.10;;;;;;;21.98;40.70;101863.91;4996771;28;20061;-59
2022/08/29 04:35:50;;;;;;;1.63;1.00;;;;;;;21.90;41.45;101859.34;4997169;28;20549;-59
2022/08/29 04:38:15;;;;;;;4.32;1.98;;;;;;;21.90;40.51;101859.34;4996628;28;20400;-60
2022/08/29 04:40:41;;;;;;;1.83;1.30;;;;;;;21.93;40.90;101869.91;4996653;28;20041;-59
2022/08/29 04:43:07;;;;;;;7.28;1.55;;;;;;;21.91;40.49;101865.66;4996544;28;20372;-59
2022/08/29 04:45:34;;;;;;;1.40;1.15;;;;;;;21.90;40.51;101880.31;4995344;28;20027;-60
2022/08/29 04:48:01;;;;;;;1.63;1.08;;;;;;;21.89;41.41;101878.59;4995279;28;20033;-59
2022/08/29 04:50:27;;;;;;;5.25;1.05;;;;;;;21.88;40.81;101887.84;4979288;28;20061;-59
2022/08/29 04:52:52;;;;;;;3.25;1.00;;;;;;;21.88;40.86;101890.56;4994772;28;20022;-59
2022/08/29 04:55:19;;;;;;;1.95;1.10;;;;;;;21.89;41.51;101892.25;4996300;28;20057;-59
2022/08/29 04:57:45;;;;;;;2.70;1.38;;;;;;;21.87;40.48;101888.84;4996268;28;20077;-59
2022/08/29 05:00:13;;;;;;;1.98;1.08;;;;;;;21.87;41.06;101886.97;4995073;28;20447;-60
2022/08/29 05:02:40;;;;;;;5.38;1.33;;;;;;;21.87;40.98;101891.59;4995028;28;20033;-60
2022/08/29 05:05:07;;;;;;;5.57;1.20;;;;;;;21.86;41.45;101889.88;4994924;28;20125;-60
2022/08/29 05:07:32;;;;;;;5.50;2.08;;;;;;;21.89;41.34;101900.44;4978718;28;20117;-60
2022/08/29 05:10:00;;;;;;;4.65;1.17;;;;;;;21.90;41.23;101904.88;4978637;28;20054;-60
2022/08/29 05:12:29;;;;;;;4.10;1.40;;;;;;;21.89;41.22;101900.44;4995985;28;20105;-59
2022/08/29 05:14:55;;;;;;;3.63;1.10;;;;;;;21.91;40.91;101903.88;4994820;28;20480;-59
2022/08/29 05:17:21;;;;;;;8.00;1.55;;;;;;;21.93;41.31;101909.97;4994824;28;20037;-60
2022/08/29 05:19:48;;;;;;;2.47;1.27;;;;;;;21.95;40.75;101913.38;4994670;28;20054;-60
2022/08/29 05:22:14;;;;;;;1.65;0.85;;;;;;;21.91;41.13;101915.63;4995799;28;20026;-59
2022/08/29 05:24:40;;;;;;;2.08;1.40;;;;;;;21.94;41.24;101925.34;4995693;28;20464;-60
2022/08/29 05:27:10;;;;;;;7.47;1.80;;;;;;;21.92;41.56;101911.00;4995712;28;20241;-60
2022/08/29 05:29:40;;;;;;;3.83;0.85;;;;;;;21.95;41.69;101922.41;4995672;28;20214;-59
2022/08/29 05:32:07;;;;;;;2.95;1.10;;;;;;;21.99;41.91;101926.50;4995645;28;20053;-60
2022/08/29 05:34:33;;;;;;;2.47;1.27;;;;;;;22.02;41.02;101926.16;4994339;28;20027;-59
2022/08/29 05:36:59;;;;;;;3.63;1.23;;;;;;;22.07;41.36;101931.06;4995429;28;20037;-59
2022/08/29 05:39:24;;;;;;;5.38;1.42;;;;;;;22.13;41.27;101924.91;4994278;28;20418;-60
2022/08/29 05:41:54;;;;;;;4.32;1.65;;;;;;;22.15;41.35;101917.38;4995434;28;20041;-59
2022/08/29 05:44:19;;;;;;;4.65;1.50;;;;;;;22.27;41.20;101920.56;4995478;28;20447;-61
2022/08/29 05:46:45;;;;;;;3.30;1.50;;;;;;;22.34;41.05;101922.41;4995308;28;20065;-59
2022/08/29 05:49:10;;;;;;;6.18;1.52;;;;;;;22.40;41.00;101920.84;4994068;28;20041;-59
2022/08/29 05:51:36;;;;;;;8.30;2.90;;;;;;;22.46;41.46;101918.25;4995168;28;20026;-59
2022/08/29 05:54:02;;;;;;;9.60;1.58;;;;;;;22.52;41.79;101925.72;4995309;28;20108;-59
2022/08/29 05:56:29;;;;;;;2.53;1.52;;;;;;;22.58;41.13;101930.44;4993797;28;20074;-59
2022/08/29 05:58:54;;;;;;;13.60;2.22;;;;;;;22.64;41.77;101933.53;4993984;28;20030;-59
2022/08/29 06:01:32;;;;;;;4.03;1.52;;;;;;;22.69;41.20;101933.84;4994236;28;20026;-59
2022/08/29 06:03:58;;;;;;;4.03;1.70;;;;;;;22.73;41.70;101933.28;4992874;28;20034;-60
2022/08/29 06:06:25;;;;;;;5.13;1.95;;;;;;;22.82;41.42;101936.81;4994918;28;20033;-59
2022/08/29 06:08:52;;;;;;;1.80;1.50;;;;;;;22.87;41.12;101934.38;4977922;28;20034;-59
2022/08/29 06:11:21;;;;;;;4.35;2.50;;;;;;;22.93;40.94;101939.13;4993604;28;20365;-59
2022/08/29 06:13:46;;;;;;;5.57;1.75;;;;;;;23.01;41.62;101947.25;4994815;28;20045;-59
2022/08/29 06:16:14;;;;;;;10.48;2.13;;;;;;;23.07;41.80;101933.72;4994742;28;20026;-60
2022/08/29 06:18:40;;;;;;;2.60;1.45;;;;;;;23.11;41.46;101935.06;4988822;28;20027;-59
2022/08/29 06:21:06;;;;;;;5.15;1.30;;;;;;;23.19;41.52;101936.84;4978804;28;20166;-59
2022/08/29 06:23:32;;;;;;;4.32;1.73;;;;;;;23.24;40.69;101945.34;4975428;28;20097;-59
2022/08/29 06:25:57;;;;;;;7.63;1.30;;;;;;;23.29;40.71;101934.69;4975115;28;20027;-59
2022/08/29 06:28:26;;;;;;;4.30;1.30;;;;;;;23.37;40.50;101937.34;4975119;28;20037;-59
2022/08/29 06:30:51;;;;;;;4.30;1.38;;;;;;;23.47;41.14;101938.00;4974069;28;20027;-59
2022/08/29 06:33:16;;;;;;;3.95;1.48;;;;;;;23.64;40.29;101941.41;4975045;28;20035;-59
2022/08/29 06:35:42;;;;;;;4.15;1.50;;;;;;;23.78;41.21;101935.91;4975069;28;20105;-59
2022/08/29 06:38:07;;;;;;;3.65;1.08;;;;;;;24.01;41.02;101935.00;4974989;28;20031;-59
2022/08/29 06:40:32;;;;;;;4.32;2.03;;;;;;;24.24;40.40;101933.00;4974859;28;20480;-59
2022/08/29 06:42:58;;;;;;;4.13;1.55;;;;;;;24.51;40.15;101937.75;4974899;28;20492;-59
2022/08/29 06:45:23;;;;;;;3.25;1.52;;;;;;;24.63;40.13;101940.84;4989681;28;20416;-59
2022/08/29 06:47:48;;;;;;;4.47;1.40;;;;;;;24.96;39.20;101944.81;4982619;28;20435;-59
2022/08/29 06:50:15;;;;;;;5.35;1.30;;;;;;;25.33;39.16;101939.03;4974741;28;20057;-59
2022/08/29 06:52:40;;;;;;;1.98;1.58;;;;;;;25.51;38.58;101935.84;4973499;28;20062;-59
2022/08/29 06:55:10;;;;;;;5.65;1.15;;;;;;;25.45;39.52;101914.66;4974756;28;20038;-59
2022/08/29 06:57:36;;;;;;;1.83;1.00;;;;;;;25.50;39.33;101928.63;4996901;28;20034;-59
2022/08/29 07:00:03;;;;;;;7.45;1.35;;;;;;;25.54;39.01;101929.94;4991668;28;20439;-59
2022/08/29 07:02:28;;;;;;;4.43;1.27;;;;;;;25.59;39.63;101932.94;4994083;28;20057;-59
2022/08/29 07:04:54;;;;;;;6.15;2.05;;;;;;;25.63;39.23;101931.47;4993887;28;20030;-59
2022/08/29 07:07:19;;;;;;;9.27;1.60;;;;;;;25.69;39.27;101927.94;4993939;28;20109;-59
2022/08/29 07:09:45;;;;;;;4.65;1.65;;;;;;;25.71;39.21;101925.81;4992778;28;20445;-59
2022/08/29 07:12:10;;;;;;;6.03;2.10;;;;;;;25.75;38.83;101931.75;4993937;28;20026;-59
2022/08/29 07:14:35;;;;;;;8.70;2.10;;;;;;;25.75;38.74;101932.63;4992598;28;20419;-59
2022/08/29 07:17:01;;;;;;;8.93;2.05;;;;;;;25.77;39.17;101940.63;4993825;28;20038;-59
2022/08/29 07:19:26;;;;;;;7.57;2.58;;;;;;;25.75;38.75;101943.59;4993888;28;20054;-59
2022/08/29 07:21:53;;;;;;;8.20;2.85;;;;;;;25.72;38.26;101944.00;4994063;28;20038;-59
2022/08/29 07:24:18;;;;;;;7.85;2.55;;;;;;;25.70;38.58;101937.88;4992433;28;20044;-59
2022/08/29 07:26:44;;;;;;;5.03;2.00;;;;;;;25.71;39.09;101945.03;4993679;28;20026;-59
2022/08/29 07:29:13;;;;;;;10.02;3.10;;;;;;;25.70;38.29;101948.84;4993780;28;20038;-59
2022/08/29 07:31:39;;;;;;;7.97;2.78;;;;;;;25.73;38.68;101939.34;4993748;28;20395;-59
2022/08/29 07:34:04;;;;;;;15.55;2.95;;;;;;;25.71;38.75;101936.78;4993744;28;20022;-60
2022/08/29 07:36:31;;;;;;;11.43;2.80;;;;;;;25.70;38.52;101929.63;4993966;28;20031;-60
2022/08/29 07:38:56;;;;;;;12.85;3.47;;;;;;;25.76;38.79;101938.97;4993912;28;20479;-59
2022/08/29 07:41:23;;;;;;;8.73;3.00;;;;;;;25.87;38.37;101941.13;4993705;28;20146;-59
2022/08/29 07:43:49;;;;;;;7.88;2.85;;;;;;;26.02;38.30;101934.44;4993590;28;20042;-59
2022/08/29 07:46:16;;;;;;;8.27;2.85;;;;;;;26.19;38.30;101934.13;4993540;28;20430;-60
2022/08/29 07:48:42;;;;;;;7.28;2.95;;;;;;;26.23;38.15;101943.69;4993795;28;20023;-59
2022/08/29 07:51:13;;;;;;;9.35;2.83;;;;;;;26.30;37.55;101944.56;4993505;28;20027;-59
2022/08/29 07:53:39;;;;;;;8.60;2.80;;;;;;;26.42;37.74;101945.66;4993337;28;20049;-59
2022/08/29 07:56:07;;;;;;;7.65;2.53;;;;;;;26.49;37.73;101943.78;4992235;28;20116;-59
2022/08/29 07:58:32;;;;;;;5.55;2.50;;;;;;;26.82;37.47;101943.91;4993524;28;20373;-59
2022/08/29 08:00:58;;;;;;;8.65;2.78;;;;;;;27.02;37.27;101933.78;4993386;28;20034;-60
2022/08/29 08:03:25;;;;;;;7.35;2.30;;;;;;;27.16;36.80;101933.56;4992270;28;20423;-59
2022/08/29 08:05:52;;;;;;;10.93;2.40;;;;;;;27.35;36.51;101947.56;4993392;28;20114;-60
2022/08/29 08:08:17;;;;;;;5.90;2.15;;;;;;;27.50;36.15;101946.28;4993240;28;20030;-60
2022/08/29 08:10:42;;;;;;;5.60;1.98;;;;;;;27.84;35.79;101945.19;4993365;28;20037;-59
2022/08/29 08:13:08;;;;;;;11.07;2.60;;;;;;;27.97;36.56;101949.81;4993301;28;20073;-60
2022/08/29 08:15:33;;;;;;;8.07;2.00;;;;;;;28.34;36.19;101942.75;4993321;28;20424;-59
2022/08/29 08:17:59;;;;;;;3.35;2.15;;;;;;;28.73;35.81;101937.00;4993583;28;20056;-59
2022/08/29 08:20:24;;;;;;;5.03;2.03;;;;;;;29.04;34.45;101934.25;4993348;28;20472;-60
2022/08/29 08:22:49;;;;;;;6.40;1.73;;;;;;;29.38;34.56;101936.56;4993265;28;20046;-60
2022/08/29 08:25:15;;;;;;;4.50;1.98;;;;;;;29.47;34.92;101944.56;4991981;28;20046;-60
2022/08/29 08:27:40;;;;;;;7.65;2.33;;;;;;;29.39;34.04;101937.41;4995504;28;20109;-60
2022/08/29 08:30:06;;;;;;;2.10;1.45;;;;;;;29.51;33.95;101940.28;4996772;28;20039;-59
2022/08/29 08:32:32;;;;;;;4.55;1.45;;;;;;;29.92;33.47;101949.66;4996997;28;20060;-60
2022/08/29 08:34:57;;;;;;;1.95;1.20;;;;;;;30.24;33.88;101944.81;4995376;28;20523;-60
2022/08/29 08:37:23;;;;;;;3.55;1.05;;;;;;;30.57;33.02;101952.69;4996660;28;20022;-60
2022/08/29 08:39:48;;;;;;;3.25;1.60;;;;;;;30.85;32.84;101943.81;4995294;28;20030;-59
2022/08/29 08:42:25;;;;;;;2.63;1.50;;;;;;;31.13;32.15;101952.31;4996535;28;20030;-60
2022/08/29 08:45:04;;;;;;;4.78;1.33;;;;;;;31.48;31.67;101949.63;4963525;28;20026;-60
2022/08/29 08:47:33;;;;;;;5.38;1.50;;;;;;;31.74;31.46;101940.84;4996463;28;20024;-60
2022/08/29 08:50:05;;;;;;;2.35;1.10;;;;;;;32.09;31.58;101954.69;4995181;28;20097;-60
2022/08/29 08:52:54;;;;;;;3.88;1.65;;;;;;;32.38;31.07;101953.66;4996283;28;20022;-60
2022/08/29 08:55:27;;;;;;;2.90;0.95;;;;;;;32.07;31.45;101943.00;4996233;28;20113;-59
2022/08/29 08:58:14;;;;;;;3.67;1.02;;;;;;;32.02;31.51;101952.03;4995010;28;20026;-60
2022/08/29 09:00:47;;;;;;;4.50;1.20;;;;;;;32.38;30.78;101950.03;4994933;28;20066;-60
2022/08/29 09:03:52;;;;;;;4.65;1.20;;;;;;;32.63;30.51;101943.09;4996114;28;20026;-60
2022/08/29 09:06:31;;;;;;;2.05;1.38;;;;;;;32.76;29.96;101942.78;4975138;28;20137;-60
2022/08/29 09:09:35;;;;;;;4.32;1.33;;;;;;;32.98;29.67;101955.94;4996058;28;20480;-60
2022/08/29 09:12:03;;;;;;;3.80;1.02;;;;;;;33.17;29.98;101949.94;4975111;28;20112;-60
2022/08/29 09:14:40;;;;;;;3.85;1.35;;;;;;;33.33;29.82;101951.06;4996136;28;20085;-60
2022/08/29 09:17:08;;;;;;;4.22;1.35;;;;;;;33.41;28.66;101947.84;4994679;28;20033;-60
2022/08/29 09:19:33;;;;;;;5.32;1.33;;;;;;;33.66;29.98;101945.50;4994608;28;20106;-60
2022/08/29 09:22:06;;;;;;;2.92;1.20;;;;;;;33.85;29.03;101944.09;4994602;28;20054;-60
2022/08/29 09:24:41;;;;;;;8.52;1.30;;;;;;;34.15;28.11;101935.34;4995873;28;20053;-60
2022/08/29 09:27:16;;;;;;;4.45;0.90;;;;;;;34.17;29.02;101944.31;4994574;28;20030;-60
2022/08/29 09:29:41;;;;;;;3.50;1.23;;;;;;;34.16;29.17;101941.75;4995647;28;20026;-60
2022/08/29 09:32:10;;;;;;;5.70;2.08;;;;;;;33.94;29.15;101950.91;4994255;28;20117;-60
2022/08/29 09:34:39;;;;;;;3.63;1.00;;;;;;;33.60;28.96;101948.44;4994385;28;20050;-60
2022/08/29 09:37:27;;;;;;;2.13;1.25;;;;;;;33.47;28.66;101949.63;4994388;28;20033;-60
2022/08/29 09:40:00;;;;;;;2.40;1.40;;;;;;;33.34;28.82;101950.78;4994493;28;20018;-60
2022/08/29 09:42:32;;;;;;;2.42;1.25;;;;;;;33.33;28.20;101946.31;4995444;28;20109;-60
2022/08/29 09:45:04;;;;;;;5.75;1.85;;;;;;;33.60;28.17;101946.50;4995287;28;20056;-60
2022/08/29 09:47:34;;;;;;;4.23;1.60;;;;;;;34.09;28.38;101944.72;4994065;28;20110;-60
2022/08/29 09:49:59;;;;;;;1.58;1.10;;;;;;;34.71;28.17;101945.22;4994093;28;20030;-60
2022/08/29 09:52:25;;;;;;;5.15;1.48;;;;;;;35.33;27.75;101939.16;4995206;28;20396;-60
2022/08/29 09:54:50;;;;;;;7.05;1.52;;;;;;;35.80;26.92;101926.13;4980940;28;20114;-58
2022/08/29 09:57:15;;;;;;;2.10;1.13;;;;;;;36.45;26.56;101927.56;4990753;28;20106;-61
2022/08/29 09:59:44;;;;;;;3.70;1.23;;;;;;;37.43;24.79;101922.69;4975717;28;20082;-60
2022/08/29 10:02:09;;;;;;;2.97;1.30;;;;;;;36.74;25.33;101920.41;4975589;28;20027;-61
2022/08/29 10:04:37;;;;;;;5.65;1.25;;;;;;;35.94;26.60;101927.31;4975518;28;20627;-59
2022/08/29 10:07:13;;;;;;;6.38;1.90;;;;;;;35.36;26.51;101919.94;4975225;28;20434;-58
2022/08/29 10:09:39;;;;;;;4.65;1.27;;;;;;;35.05;27.08;101926.34;4975475;28;20023;-58
2022/08/29 10:12:11;;;;;;;3.60;1.02;;;;;;;35.04;26.50;101917.13;4990439;28;20523;-58
2022/08/29 10:14:41;;;;;;;;;;;;;;;35.01;26.63;101920.44;4991011;28;20026;-60
2022/08/29 10:19:59;;;;;;;3.35;1.02;;;;;;;34.91;26.57;101923.16;4954740;28;20062;-60
2022/08/29 10:22:36;;;;;;;4.90;1.25;;;;;;;34.90;26.19;101920.63;4975374;28;20041;-57
2022/08/29 10:25:31;;;;;;;2.35;0.98;;;;;;;35.11;26.36;101916.13;4990149;28;20035;-58
2022/08/29 10:27:59;;;;;;;1.88;0.85;;;;;;;35.28;26.37;101916.81;4975194;28;20030;-58
2022/08/29 10:30:47;;;;;;;2.80;1.38;;;;;;;35.43;25.93;101919.72;4990094;28;20033;-57
2022/08/29 10:33:25;;;;;;;3.45;1.08;;;;;;;35.86;25.71;101908.31;4974983;28;20575;-58
2022/08/29 10:36:10;;;;;;;3.17;2.10;;;;;;;36.03;25.73;101911.78;4974956;28;20031;-58
2022/08/29 10:38:46;;;;;;;2.78;1.20;;;;;;;36.43;25.02;101911.09;4974645;28;20511;-58
2022/08/29 10:41:25;;;;;;;3.33;1.50;;;;;;;37.13;24.41;101901.97;4989886;28;20027;-58
2022/08/29 10:44:02;;;;;;;2.60;1.30;;;;;;;37.66;24.72;101891.31;4973668;28;20496;-59
2022/08/29 10:46:40;;;;;;;3.80;1.75;;;;;;;37.72;24.44;101896.59;4973600;28;20440;-58
2022/08/29 10:49:28;;;;;;;5.90;3.10;;;;;;;37.80;24.45;101896.00;4989747;28;20031;-59
2022/08/29 10:51:53;;;;;;;4.13;1.35;;;;;;;37.96;24.15;101894.06;4973387;28;20026;-59
2022/08/29 10:54:53;;;;;;;2.10;1.15;;;;;;;38.54;23.22;101883.97;4974694;28;20057;-59
2022/08/29 10:57:57;;;;;;;2.33;1.45;;;;;;;38.63;23.80;101886.97;4974422;28;20043;-59
2022/08/29 11:00:30;;;;;;;4.32;1.23;;;;;;;38.62;24.15;101874.09;4973335;28;20031;-59
2022/08/29 11:03:19;;;;;;;5.32;1.40;;;;;;;38.85;22.88;101876.19;4989662;28;20042;-59
2022/08/29 11:05:50;;;;;;;2.25;1.38;;;;;;;39.17;22.49;101865.25;4974729;28;20057;-59
2022/08/29 11:08:25;;;;;;;5.22;1.45;;;;;;;39.33;22.38;101858.41;4974453;28;20035;-59
2022/08/29 11:10:52;;;;;;;7.90;1.23;;;;;;;39.59;22.60;101861.75;4974467;28;20054;-59
2022/08/29 11:13:20;;;;;;;6.90;1.73;;;;;;;39.13;22.86;101864.16;4974515;28;20038;-59
2022/08/29 11:16:04;;;;;;;6.68;1.65;;;;;;;39.14;22.43;101865.00;4989419;28;20019;-59
2022/08/29 11:18:32;;;;;;;2.42;1.40;;;;;;;39.27;22.72;101865.19;4974376;28;20077;-59
2022/08/29 11:21:02;;;;;;;4.20;1.30;;;;;;;39.21;23.18;101862.72;4974419;28;20396;-59
2022/08/29 11:23:39;;;;;;;4.95;1.80;;;;;;;39.28;22.34;101866.84;4989360;28;20023;-59
2022/08/29 11:26:20;;;;;;;4.25;1.85;;;;;;;39.31;22.34;101866.25;4989511;28;20039;-59
2022/08/29 11:28:56;;;;;;;3.20;1.40;;;;;;;39.59;22.00;101862.56;4974386;28;20027;-59
2022/08/29 11:31:58;;;;;;;3.13;1.35;;;;;;;39.71;22.12;101858.53;4974597;28;20481;-59
2022/08/29 11:34:51;;;;;;;2.35;1.08;;;;;;;39.84;21.90;101847.44;4974314;28;20106;-58